F/V Attalaya Berria — FHCB — position and weather

sailwx.info

Track history (hours):
 
Tides and Currents Weather Stations Pressure Air Temp Water Temp Dewpoint Dewpoint Depression Visibility Wind Speed Wind Dir Waves Ship Positions

F/V Attalaya Berria

Last reported at 2014-Jul-23 19:12 UTC. Time now 2014-Jul-23 19:45 UTC.
Position N 43°28' W 001°39'.

Length 26 m.

Type: Fishing. MMSI: 228315000.

Date/timePositionNaut miles runAvg speedWind from/ knotsBaromVisibWave heightAir tempDewpointWater temp
2014-Jul-23 19:12N 43°28' W 001°39'3 5.2
2014-Jul-23 18:33N 43°26' W 001°43'4 0.4
2014-Jul-23 08:33N 43°23' W 001°47'2 0.3
2014-Jul-23 03:05N 43°25' W 001°48'510.1
2014-Jul-23 02:32N 43°28' W 001°42'0 0.4
2014-Jul-23 01:33N 43°28' W 001°41'0 0.3
2014-Jul-23 00:33N 43°28' W 001°42'2 1.8
2014-Jul-22 23:33N 43°26' W 001°40'5 4.6
2014-Jul-22 22:33N 43°29' W 001°36'2 1.9
2014-Jul-22 21:32N 43°31' W 001°34'2 1.6
2014-Jul-22 20:33N 43°30' W 001°36'5 4.7
2014-Jul-22 19:33N 43°27' W 001°42'5 0.4
2014-Jul-22 05:34N 43°24' W 001°47'3 0.9
2014-Jul-22 02:10N 43°27' W 001°46'4 6.2
2014-Jul-22 01:33N 43°28' W 001°41'0 0.4
2014-Jul-22 00:33N 43°28' W 001°41'6 5.9
2014-Jul-21 23:33N 43°31' W 001°35'0 0.3
2014-Jul-21 22:34N 43°31' W 001°34'0 0.4
2014-Jul-21 21:33N 43°31' W 001°34'7 6.2
2014-Jul-21 20:30N 43°28' W 001°41'0 0.2
2014-Jul-21 20:12N 43°28' W 001°41'6 8.7
2014-Jul-21 19:33N 43°24' W 001°46'1 1.0
2014-Jul-21 18:33N 43°23' W 001°47'  
2014-Jul-18 05:09N 43°22' W 001°47'8 2.2
2014-Jul-18 01:33N 43°28' W 001°40'8 0.4
2014-Jul-17 06:20N 43°22' W 001°47'7 1.4
2014-Jul-17 01:15N 43°28' W 001°42'1 0.8
2014-Jul-17 00:16N 43°28' W 001°41'3 4.9
2014-Jul-16 23:33N 43°29' W 001°37'2 1.8
2014-Jul-16 22:14N 43°31' W 001°34'1 0.8
2014-Jul-16 21:30N 43°31' W 001°34'1 1.0
2014-Jul-16 20:30N 43°30' W 001°34'6 5.9
2014-Jul-16 19:33N 43°28' W 001°41'7 6.9
2014-Jul-16 18:33N 43°23' W 001°47'2 0.1
2014-Jul-16 07:33N 43°24' W 001°48'6 1.1
2014-Jul-16 02:15N 43°28' W 001°42'2 3.2
2014-Jul-16 01:31N 43°29' W 001°39'3 3.2
2014-Jul-16 00:33N 43°31' W 001°35'0 0.3
2014-Jul-15 23:28N 43°31' W 001°35'0 0.2
2014-Jul-15 22:27N 43°31' W 001°35'0 0.1
2014-Jul-15 21:30N 43°31' W 001°35'4 4.6
2014-Jul-15 20:33N 43°28' W 001°40'8 0.5
2014-Jul-15 06:17N 43°23' W 001°47'7 1.4
2014-Jul-15 01:05N 43°28' W 001°40'3 5.9
2014-Jul-15 00:33N 43°30' W 001°37'1 0.5
2014-Jul-14 23:33N 43°30' W 001°36'0 0.2
2014-Jul-14 22:33N 43°30' W 001°36'1 0.7
2014-Jul-14 21:33N 43°31' W 001°35'4 3.7
2014-Jul-14 20:33N 43°29' W 001°39'8 0.5
2014-Jul-14 02:10N 43°23' W 001°47'7 4.1
2014-Jul-14 00:29N 43°27' W 001°40'5 5.2
2014-Jul-13 23:33N 43°30' W 001°35'0 0.3
2014-Jul-13 22:33N 43°31' W 001°35'  
Track history (hours):
 
Tides and Currents Weather Stations Pressure Air Temp Water Temp Dewpoint Dewpoint Depression Visibility Wind Speed Wind Dir Waves Ship Positions

F/V Attalaya Berria

Last reported at 2014-Jul-23 19:12 UTC. Time now 2014-Jul-23 19:45 UTC.
Position N 43°28' W 001°39'.

Length 26 m.

Type: Fishing. MMSI: 228315000.

Date/timePositionNaut miles runAvg speedWind from/ knotsBaromVisibWave heightAir tempDewpointWater temp
2014-Jul-23 19:12N 43°28' W 001°39'3 5.2
2014-Jul-23 18:33N 43°26' W 001°43'4 0.4
2014-Jul-23 08:33N 43°23' W 001°47'2 0.3
2014-Jul-23 03:05N 43°25' W 001°48'510.1
2014-Jul-23 02:32N 43°28' W 001°42'0 0.4
2014-Jul-23 01:33N 43°28' W 001°41'0 0.3
2014-Jul-23 00:33N 43°28' W 001°42'2 1.8
2014-Jul-22 23:33N 43°26' W 001°40'5 4.6
2014-Jul-22 22:33N 43°29' W 001°36'2 1.9
2014-Jul-22 21:32N 43°31' W 001°34'2 1.6
2014-Jul-22 20:33N 43°30' W 001°36'5 4.7
2014-Jul-22 19:33N 43°27' W 001°42'5 0.4
2014-Jul-22 05:34N 43°24' W 001°47'3 0.9
2014-Jul-22 02:10N 43°27' W 001°46'4 6.2
2014-Jul-22 01:33N 43°28' W 001°41'0 0.4
2014-Jul-22 00:33N 43°28' W 001°41'6 5.9
2014-Jul-21 23:33N 43°31' W 001°35'0 0.3
2014-Jul-21 22:34N 43°31' W 001°34'0 0.4
2014-Jul-21 21:33N 43°31' W 001°34'7 6.2
2014-Jul-21 20:30N 43°28' W 001°41'0 0.2
2014-Jul-21 20:12N 43°28' W 001°41'6 8.7
2014-Jul-21 19:33N 43°24' W 001°46'1 1.0
2014-Jul-21 18:33N 43°23' W 001°47'  
2014-Jul-18 05:09N 43°22' W 001°47'8 2.2
2014-Jul-18 01:33N 43°28' W 001°40'8 0.4
2014-Jul-17 06:20N 43°22' W 001°47'7 1.4
2014-Jul-17 01:15N 43°28' W 001°42'1 0.8
2014-Jul-17 00:16N 43°28' W 001°41'3 4.9
2014-Jul-16 23:33N 43°29' W 001°37'2 1.8
2014-Jul-16 22:14N 43°31' W 001°34'1 0.8
2014-Jul-16 21:30N 43°31' W 001°34'1 1.0
2014-Jul-16 20:30N 43°30' W 001°34'6 5.9
2014-Jul-16 19:33N 43°28' W 001°41'7 6.9
2014-Jul-16 18:33N 43°23' W 001°47'2 0.1
2014-Jul-16 07:33N 43°24' W 001°48'6 1.1
2014-Jul-16 02:15N 43°28' W 001°42'2 3.2
2014-Jul-16 01:31N 43°29' W 001°39'3 3.2
2014-Jul-16 00:33N 43°31' W 001°35'0 0.3
2014-Jul-15 23:28N 43°31' W 001°35'0 0.2
2014-Jul-15 22:27N 43°31' W 001°35'0 0.1
2014-Jul-15 21:30N 43°31' W 001°35'4 4.6
2014-Jul-15 20:33N 43°28' W 001°40'8 0.5
2014-Jul-15 06:17N 43°23' W 001°47'7 1.4
2014-Jul-15 01:05N 43°28' W 001°40'3 5.9
2014-Jul-15 00:33N 43°30' W 001°37'1 0.5
2014-Jul-14 23:33N 43°30' W 001°36'0 0.2
2014-Jul-14 22:33N 43°30' W 001°36'1 0.7
2014-Jul-14 21:33N 43°31' W 001°35'4 3.7
2014-Jul-14 20:33N 43°29' W 001°39'8 0.5
2014-Jul-14 02:10N 43°23' W 001°47'7 4.1
2014-Jul-14 00:29N 43°27' W 001°40'5 5.2
2014-Jul-13 23:33N 43°30' W 001°35'0 0.3
2014-Jul-13 22:33N 43°31' W 001°35'  

Dump ship's entire track history